HEGN - Hurghada Intl. Airport

HEGN 170400Z 28012KT CAVOK 27/01 Q1013 NOSIG=


Sceneries:

Scenery Link
HEGN/HRG - FREEWARE - Hurghada 9X
HEGN/HRG - FREEWARE - Hurghada Intl. for MSFS2020
HEGN/HRG - FSDG - HURGHADA P3Dv4-5
HEGN/HRG - SIMBREEZE - HURGHADA X V2 HEGN FSX P3D
HEGN/HRG - SIMBREEZE - HURGHADA X V2 HEGN P3Dv4
HEGN/HRG - SIMBREEZE - HURGHADA X V2 HEGN P3Dv5
HEGN/HRG - SIMBREEZE - HURGHADA HEGN MSFS
HEGN/HRG - CHUDOBA DESIGN - HURGHADA FOR X-PLANE 11

Briefing & Aerodrome Charts:

If are seeing this paragrapgh, it means that you don't have a web integerated PDF reader installed, however, you can still download the PDF from here.


Our Partners

VATSIM

VATSIM is the Virtual Air Traffic Simulation network, connecting people from around the world flying online or acting as virtual Air Traffic Controllers.

VATMENA

VATME - VATSIM Middle East & North Africa Divison is part of the Africa and Middle East Region on the VATSIM Network.

Egyptair Virtual

Egyptair Virtual simulates the real life operations of Egyptair yet is not releated to the actual Egyptair.